Terminal Aerodrome Forecast
Issued by NWS Omaha/Valley, NE

Home | Current Version | Previous Version | Graphics & Text | Print | Product List | Glossary On
Versions: 1 2 3 4 5 6 7 8 9 10 11 12 13 14
859
FTUS43 KOAX 200520
TAFOFK
TAF
KOFK 200520Z 2006/2106 02006KT P6SM -RA OVC050
     FM200900 03006KT P6SM -RA OVC025
     FM201000 02005KT P6SM OVC015
     FM201900 36006KT P6SM BKN050
     FM210300 31004KT P6SM SCT250=

USA.gov is the U.S. government's official web portal to all federal, state and local government web resources and services.